Seattle, WA (98144)

3:42 PM PDT on August 30, 2015 (GMT -0700)
Leschi | | Change Station
CLOSE
Current Station
Personal Weather Station
Location: Seattle, WA
Elevation: 226 ft
Nearby Weather Stations

Elev 226 ft 47.59 °N, 122.29 °W | Updated 4 seconds ago

Overcast
Overcast
68.4 °F
Feels Like 68.4 °F
N
0.9
Wind Variable Wind from SE
Gusts 9.0 mph

Today
High -- | Low -- °F
--% Chance of Precip.
Yesterday
High -- | Low -- °F
Precip. -- in
6:24 AM 7:53 PM
Full, 98% visible
Pressure 29.95 in
Visibility 10.0 miles
Clouds Few 3000 ft
Scattered Clouds 8000 ft
Mostly Cloudy 12000 ft
Dew Point 58 °F
Humidity 69%
Rainfall 0.20 in
Snow Depth Not available.
UV 3.3 out of 12
Pollen .50 out of 12
Air Quality Not available.
Flu Activity Not available.
METAR KBFI 302153Z 19010G14KT 10SM FEW030 SCT080 BKN120 20/11 A2995 RMK AO2 SLP142 P0001 T02000106 $
Pressure 29.95 in
Visibility 10.0 miles
Clouds Few 3000 ft
Scattered Clouds 8000 ft
Mostly Cloudy 12000 ft
Dew Point 58 °F
Humidity 69%
Rainfall 0.20 in
Snow Depth Not available.
UV 3.3 out of 12
Pollen .50 out of 12
Air Quality Not available.
Flu Activity Not available.
METAR KBFI 302153Z 19010G14KT 10SM FEW030 SCT080 BKN120 20/11 A2995 RMK AO2 SLP142 P0001 T02000106 $

10-Day Weather Forecast

×

Almanac

Astronomy

Aug. 30, 2015 Rise Set
Actual Time
Civil Twilight
Nautical Twilight
Astronomical Twilight
Moon
Length of Visible Light
Length of Day
Tomorrow will be .
, % of the Moon is Illuminated

Today's Extremes

State Highs State Lows

Community

WunderPhotos

Upload Photos

1,851,075 photos uploaded!

WunderBlogs® & News

Nearby

Air Quality

  Air Quality AQ Index Pollutant
Not available.

Snow Depth

Station Depth Elevation

Earthquake Activity

City Distance Mag. Time & Date
Minimum magnitude displayed is 2.5.

Coastal Water Temperatures

Place Temperature

Stations

Nearby Weather Stations

Station Location Temp. Windchill Dew Point Humidity Wind Precip. Elev Updated Type